Laupheim, Germany

8:06 PM CET on February 09, 2016 (GMT +0100)
Laupheim Army | | Change Station
CLOSE
Current Station
Airport
Location: Laupheim,
Elevation: 1765 ft
Nearby Weather Stations

Elev 1765 ft 48.22 °N, 9.91 °E | Updated 6 minutes ago

Rain
Rain Haze
46 °F
Feels Like 38 °F
N
22
Wind Variable Wind from West
Gusts 37 mph

Today
High -- | Low -- °F
--% Chance of Precip.
Yesterday
High -- | Low -- °F
Precip. -- in
Pressure 29.30 in
Visibility -9999.0 miles
Clouds Mostly Cloudy 1600 ft
Overcast 3500 ft
Windchill 38 °F
Dew Point 39 °F
Humidity 76%
Rainfall 0.00 in
Snow Depth Not available.
7:38 AM 5:31 PM
New Moon, 2% visible
SPECI ETHL 091900Z 26019G32KT 4800 RA HZ BKN016 OVC035 08/04 Q0992 GRN BLU TEMPO GRN
Pressure 29.30 in
Visibility -9999.0 miles
Clouds Mostly Cloudy 1600 ft
Overcast 3500 ft
Windchill 38 °F
Dew Point 39 °F
Humidity 76%
Rainfall 0.00 in
Snow Depth Not available.
7:38 AM 5:31 PM
New Moon, 2% visible
SPECI ETHL 091900Z 26019G32KT 4800 RA HZ BKN016 OVC035 08/04 Q0992 GRN BLU TEMPO GRN

10-Day Weather Forecast

Almanac

Astronomy

Feb. 09, 2016 Rise Set
Actual Time
Civil Twilight
Nautical Twilight
Astronomical Twilight
Moon
Length of Visible Light
Length of Day
Tomorrow will be .
, % of the Moon is Illuminated

Today's Extremes

Country Highs Country Lows

Community

WunderPhotos

Upload Photos

1,891,664 photos uploaded!

WunderBlog® & News

Nearby

Air Quality

  Air Quality AQ Index Pollutant
Not available.

Snow Depth

Station Depth Elevation

Earthquake Activity

City Distance Mag. Time & Date
Minimum magnitude displayed is 2.5.

Coastal Water Temperatures

Place Temperature

Stations

Nearby Weather Stations

Station Location Temp. Windchill Dew Point Humidity Wind Precip. Elev Updated Type